sensor_id;sensor_type;location;lat;lon;timestamp;P1;durP1;ratioP1;P2;durP2;ratioP2
68074;SDS011;54864;52.002;5.468;2023-04-03T00:00:45;4.13;;;2.50;;
68074;SDS011;54864;52.002;5.468;2023-04-03T00:01:45;4.25;;;2.83;;
68074;SDS011;54864;52.002;5.468;2023-04-03T00:02:47;4.57;;;2.40;;
68074;SDS011;54864;52.002;5.468;2023-04-03T00:03:48;5.67;;;2.50;;
68074;SDS011;54864;52.002;5.468;2023-04-03T00:04:50;5.85;;;2.72;;
68074;SDS011;54864;52.002;5.468;2023-04-03T00:05:51;5.18;;;2.38;;
68074;SDS011;54864;52.002;5.468;2023-04-03T00:06:53;8.93;;;2.67;;
68074;SDS011;54864;52.002;5.468;2023-04-03T00:07:53;4.60;;;2.73;;
68074;SDS011;54864;52.002;5.468;2023-04-03T00:08:55;5.22;;;2.50;;
68074;SDS011;54864;52.002;5.468;2023-04-03T00:09:56;4.30;;;2.50;;
68074;SDS011;54864;52.002;5.468;2023-04-03T00:10:58;5.28;;;2.60;;
68074;SDS011;54864;52.002;5.468;2023-04-03T00:11:59;8.82;;;3.00;;
68074;SDS011;54864;52.002;5.468;2023-04-03T00:13:01;5.13;;;2.40;;
68074;SDS011;54864;52.002;5.468;2023-04-03T00:14:03;4.13;;;2.30;;
68074;SDS011;54864;52.002;5.468;2023-04-03T00:15:05;7.68;;;3.13;;
68074;SDS011;54864;52.002;5.468;2023-04-03T00:16:07;4.47;;;2.50;;
68074;SDS011;54864;52.002;5.468;2023-04-03T00:17:09;5.60;;;2.55;;
68074;SDS011;54864;52.002;5.468;2023-04-03T00:18:10;5.63;;;2.70;;
68074;SDS011;54864;52.002;5.468;2023-04-03T00:19:11;7.30;;;2.67;;
68074;SDS011;54864;52.002;5.468;2023-04-03T00:20:12;4.50;;;2.65;;
68074;SDS011;54864;52.002;5.468;2023-04-03T00:21:14;6.25;;;2.60;;
68074;SDS011;54864;52.002;5.468;2023-04-03T00:22:15;5.35;;;2.50;;
68074;SDS011;54864;52.002;5.468;2023-04-03T00:23:17;4.38;;;2.30;;
68074;SDS011;54864;52.002;5.468;2023-04-03T00:24:18;3.75;;;2.53;;
68074;SDS011;54864;52.002;5.468;2023-04-03T00:25:20;8.63;;;2.70;;
68074;SDS011;54864;52.002;5.468;2023-04-03T00:26:20;3.33;;;2.43;;
68074;SDS011;54864;52.002;5.468;2023-04-03T00:27:22;4.15;;;2.55;;
68074;SDS011;54864;52.002;5.468;2023-04-03T00:28:23;4.03;;;2.83;;
68074;SDS011;54864;52.002;5.468;2023-04-03T00:29:26;6.38;;;2.83;;
68074;SDS011;54864;52.002;5.468;2023-04-03T00:30:27;3.45;;;2.53;;
68074;SDS011;54864;52.002;5.468;2023-04-03T00:31:29;5.32;;;2.67;;
68074;SDS011;54864;52.002;5.468;2023-04-03T00:32:30;5.17;;;2.70;;
68074;SDS011;54864;52.002;5.468;2023-04-03T00:33:32;5.32;;;2.95;;
68074;SDS011;54864;52.002;5.468;2023-04-03T00:34:33;3.90;;;2.60;;
68074;SDS011;54864;52.002;5.468;2023-04-03T00:35:34;5.80;;;2.78;;
68074;SDS011;54864;52.002;5.468;2023-04-03T00:36:38;5.72;;;2.67;;
68074;SDS011;54864;52.002;5.468;2023-04-03T00:37:40;6.35;;;3.28;;
68074;SDS011;54864;52.002;5.468;2023-04-03T00:38:40;5.15;;;2.55;;
68074;SDS011;54864;52.002;5.468;2023-04-03T00:39:42;5.75;;;2.72;;
68074;SDS011;54864;52.002;5.468;2023-04-03T00:40:44;4.15;;;2.60;;
68074;SDS011;54864;52.002;5.468;2023-04-03T00:41:47;4.60;;;2.55;;
68074;SDS011;54864;52.002;5.468;2023-04-03T00:42:48;6.03;;;2.50;;
68074;SDS011;54864;52.002;5.468;2023-04-03T00:43:56;4.53;;;2.60;;
68074;SDS011;54864;52.002;5.468;2023-04-03T00:46:24;4.25;;;2.88;;
68074;SDS011;54864;52.002;5.468;2023-04-03T00:47:26;5.93;;;3.17;;
68074;SDS011;54864;52.002;5.468;2023-04-03T00:48:28;6.00;;;2.63;;
68074;SDS011;54864;52.002;5.468;2023-04-03T00:49:32;4.97;;;2.50;;
68074;SDS011;54864;52.002;5.468;2023-04-03T00:50:34;6.22;;;2.30;;
68074;SDS011;54864;52.002;5.468;2023-04-03T00:51:38;6.63;;;2.63;;
68074;SDS011;54864;52.002;5.468;2023-04-03T00:52:41;4.20;;;2.40;;
68074;SDS011;54864;52.002;5.468;2023-04-03T00:53:46;4.18;;;2.50;;
68074;SDS011;54864;52.002;5.468;2023-04-03T00:54:54;7.00;;;2.47;;
68074;SDS011;54864;52.002;5.468;2023-04-03T00:55:58;3.83;;;1.98;;
68074;SDS011;54864;52.002;5.468;2023-04-03T00:57:02;4.05;;;2.50;;
68074;SDS011;54864;52.002;5.468;2023-04-03T00:58:06;6.70;;;2.75;;
68074;SDS011;54864;52.002;5.468;2023-04-03T00:59:10;6.55;;;2.92;;
68074;SDS011;54864;52.002;5.468;2023-04-03T01:00:15;6.35;;;2.67;;
68074;SDS011;54864;52.002;5.468;2023-04-03T01:01:22;5.18;;;2.63;;
68074;SDS011;54864;52.002;5.468;2023-04-03T01:02:26;5.22;;;2.70;;
68074;SDS011;54864;52.002;5.468;2023-04-03T01:03:27;4.88;;;2.78;;
68074;SDS011;54864;52.002;5.468;2023-04-03T01:04:32;8.98;;;2.78;;
68074;SDS011;54864;52.002;5.468;2023-04-03T01:05:35;6.85;;;2.70;;
68074;SDS011;54864;52.002;5.468;2023-04-03T01:06:37;4.47;;;2.60;;
68074;SDS011;54864;52.002;5.468;2023-04-03T01:07:38;6.20;;;2.57;;
68074;SDS011;54864;52.002;5.468;2023-04-03T01:08:40;6.05;;;2.75;;
68074;SDS011;54864;52.002;5.468;2023-04-03T01:09:43;4.25;;;2.42;;
68074;SDS011;54864;52.002;5.468;2023-04-03T01:10:45;6.38;;;2.63;;
68074;SDS011;54864;52.002;5.468;2023-04-03T01:11:46;7.45;;;2.80;;
68074;SDS011;54864;52.002;5.468;2023-04-03T01:12:48;5.63;;;2.40;;
68074;SDS011;54864;52.002;5.468;2023-04-03T01:13:51;5.03;;;2.60;;
68074;SDS011;54864;52.002;5.468;2023-04-03T01:14:52;3.67;;;2.38;;
68074;SDS011;54864;52.002;5.468;2023-04-03T01:15:56;5.88;;;2.45;;
68074;SDS011;54864;52.002;5.468;2023-04-03T01:17:02;5.05;;;2.63;;
68074;SDS011;54864;52.002;5.468;2023-04-03T01:18:04;4.60;;;2.53;;
68074;SDS011;54864;52.002;5.468;2023-04-03T01:19:04;4.45;;;2.72;;
68074;SDS011;54864;52.002;5.468;2023-04-03T01:20:24;4.65;;;2.33;;
68074;SDS011;54864;52.002;5.468;2023-04-03T01:21:41;7.63;;;2.50;;
68074;SDS011;54864;52.002;5.468;2023-04-03T01:23:12;4.00;;;2.47;;
68074;SDS011;54864;52.002;5.468;2023-04-03T01:24:33;4.05;;;2.35;;
68074;SDS011;54864;52.002;5.468;2023-04-03T01:25:39;5.28;;;2.92;;
68074;SDS011;54864;52.002;5.468;2023-04-03T01:26:41;4.70;;;2.88;;
68074;SDS011;54864;52.002;5.468;2023-04-03T01:27:43;4.90;;;2.80;;
68074;SDS011;54864;52.002;5.468;2023-04-03T01:28:44;8.40;;;2.65;;
68074;SDS011;54864;52.002;5.468;2023-04-03T01:29:46;4.32;;;2.67;;
68074;SDS011;54864;52.002;5.468;2023-04-03T01:30:48;6.07;;;2.50;;
68074;SDS011;54864;52.002;5.468;2023-04-03T01:31:58;5.88;;;2.78;;
68074;SDS011;54864;52.002;5.468;2023-04-03T01:33:00;4.75;;;2.47;;
68074;SDS011;54864;52.002;5.468;2023-04-03T01:34:01;6.22;;;2.88;;
68074;SDS011;54864;52.002;5.468;2023-04-03T01:35:06;6.50;;;2.63;;
68074;SDS011;54864;52.002;5.468;2023-04-03T01:36:09;6.70;;;2.88;;
68074;SDS011;54864;52.002;5.468;2023-04-03T01:37:16;5.97;;;2.92;;
68074;SDS011;54864;52.002;5.468;2023-04-03T01:38:18;5.03;;;2.47;;
68074;SDS011;54864;52.002;5.468;2023-04-03T01:39:19;5.57;;;2.83;;
68074;SDS011;54864;52.002;5.468;2023-04-03T01:40:21;5.20;;;2.55;;
68074;SDS011;54864;52.002;5.468;2023-04-03T01:41:22;7.30;;;3.15;;
68074;SDS011;54864;52.002;5.468;2023-04-03T01:42:25;5.57;;;2.95;;
68074;SDS011;54864;52.002;5.468;2023-04-03T01:43:26;8.53;;;2.70;;
68074;SDS011;54864;52.002;5.468;2023-04-03T01:44:27;6.88;;;2.65;;
68074;SDS011;54864;52.002;5.468;2023-04-03T01:45:28;5.85;;;2.90;;
68074;SDS011;54864;52.002;5.468;2023-04-03T01:46:30;6.75;;;2.83;;
68074;SDS011;54864;52.002;5.468;2023-04-03T01:47:32;5.95;;;2.97;;
68074;SDS011;54864;52.002;5.468;2023-04-03T01:48:34;5.75;;;2.65;;
68074;SDS011;54864;52.002;5.468;2023-04-03T01:49:35;6.20;;;2.60;;
68074;SDS011;54864;52.002;5.468;2023-04-03T01:50:36;5.15;;;2.58;;
68074;SDS011;54864;52.002;5.468;2023-04-03T01:51:37;6.32;;;2.85;;
68074;SDS011;54864;52.002;5.468;2023-04-03T01:52:39;7.95;;;2.60;;
68074;SDS011;54864;52.002;5.468;2023-04-03T01:53:40;4.95;;;2.50;;
68074;SDS011;54864;52.002;5.468;2023-04-03T01:54:42;6.13;;;2.40;;
68074;SDS011;54864;52.002;5.468;2023-04-03T01:55:43;5.10;;;2.30;;
68074;SDS011;54864;52.002;5.468;2023-04-03T01:56:44;4.53;;;2.50;;
68074;SDS011;54864;52.002;5.468;2023-04-03T01:57:45;5.57;;;2.60;;
68074;SDS011;54864;52.002;5.468;2023-04-03T01:58:47;5.95;;;2.63;;
68074;SDS011;54864;52.002;5.468;2023-04-03T01:59:48;6.38;;;2.70;;
68074;SDS011;54864;52.002;5.468;2023-04-03T02:00:50;6.32;;;2.90;;
68074;SDS011;54864;52.002;5.468;2023-04-03T02:01:51;4.65;;;2.60;;
68074;SDS011;54864;52.002;5.468;2023-04-03T02:02:54;4.82;;;2.53;;
68074;SDS011;54864;52.002;5.468;2023-04-03T02:03:55;7.32;;;2.67;;
68074;SDS011;54864;52.002;5.468;2023-04-03T02:04:57;5.15;;;3.10;;
68074;SDS011;54864;52.002;5.468;2023-04-03T02:05:58;5.23;;;2.70;;
68074;SDS011;54864;52.002;5.468;2023-04-03T02:07:00;5.20;;;2.47;;
68074;SDS011;54864;52.002;5.468;2023-04-03T02:08:03;5.53;;;2.65;;
68074;SDS011;54864;52.002;5.468;2023-04-03T02:09:06;5.78;;;3.17;;
68074;SDS011;54864;52.002;5.468;2023-04-03T02:10:07;8.52;;;2.97;;
68074;SDS011;54864;52.002;5.468;2023-04-03T02:11:09;6.22;;;3.33;;
68074;SDS011;54864;52.002;5.468;2023-04-03T02:12:10;4.50;;;2.90;;
68074;SDS011;54864;52.002;5.468;2023-04-03T02:13:11;6.97;;;2.90;;
68074;SDS011;54864;52.002;5.468;2023-04-03T02:14:12;6.47;;;2.90;;
68074;SDS011;54864;52.002;5.468;2023-04-03T02:15:14;8.15;;;2.92;;
68074;SDS011;54864;52.002;5.468;2023-04-03T02:16:17;6.93;;;2.85;;
68074;SDS011;54864;52.002;5.468;2023-04-03T02:17:19;7.97;;;2.88;;
68074;SDS011;54864;52.002;5.468;2023-04-03T02:18:21;5.63;;;2.65;;
68074;SDS011;54864;52.002;5.468;2023-04-03T02:19:26;5.18;;;3.13;;
68074;SDS011;54864;52.002;5.468;2023-04-03T02:20:27;4.60;;;2.80;;
68074;SDS011;54864;52.002;5.468;2023-04-03T02:21:28;6.35;;;2.70;;
68074;SDS011;54864;52.002;5.468;2023-04-03T02:22:29;6.32;;;2.75;;
68074;SDS011;54864;52.002;5.468;2023-04-03T02:23:32;6.45;;;2.85;;
68074;SDS011;54864;52.002;5.468;2023-04-03T02:24:33;5.53;;;2.95;;
68074;SDS011;54864;52.002;5.468;2023-04-03T02:25:35;6.63;;;2.90;;
68074;SDS011;54864;52.002;5.468;2023-04-03T02:26:36;6.53;;;2.60;;
68074;SDS011;54864;52.002;5.468;2023-04-03T02:27:38;9.05;;;2.97;;
68074;SDS011;54864;52.002;5.468;2023-04-03T02:28:39;7.10;;;2.97;;
68074;SDS011;54864;52.002;5.468;2023-04-03T02:29:43;6.38;;;2.60;;
68074;SDS011;54864;52.002;5.468;2023-04-03T02:30:44;8.70;;;3.17;;
68074;SDS011;54864;52.002;5.468;2023-04-03T02:31:46;9.50;;;2.97;;
68074;SDS011;54864;52.002;5.468;2023-04-03T02:32:46;7.50;;;3.03;;
68074;SDS011;54864;52.002;5.468;2023-04-03T02:33:49;6.40;;;3.00;;
68074;SDS011;54864;52.002;5.468;2023-04-03T02:34:50;6.13;;;3.10;;
68074;SDS011;54864;52.002;5.468;2023-04-03T02:35:53;6.72;;;3.15;;
68074;SDS011;54864;52.002;5.468;2023-04-03T02:36:53;6.25;;;3.13;;
68074;SDS011;54864;52.002;5.468;2023-04-03T02:37:55;6.22;;;2.95;;
68074;SDS011;54864;52.002;5.468;2023-04-03T02:38:56;8.00;;;2.88;;
68074;SDS011;54864;52.002;5.468;2023-04-03T02:39:58;7.07;;;2.80;;
68074;SDS011;54864;52.002;5.468;2023-04-03T02:40:59;6.05;;;3.17;;
68074;SDS011;54864;52.002;5.468;2023-04-03T02:42:02;5.55;;;3.25;;
68074;SDS011;54864;52.002;5.468;2023-04-03T02:43:03;7.95;;;2.90;;
68074;SDS011;54864;52.002;5.468;2023-04-03T02:44:06;7.57;;;3.13;;
68074;SDS011;54864;52.002;5.468;2023-04-03T02:45:09;7.82;;;2.85;;
68074;SDS011;54864;52.002;5.468;2023-04-03T02:46:12;7.47;;;3.58;;
68074;SDS011;54864;52.002;5.468;2023-04-03T02:47:15;5.85;;;2.92;;
68074;SDS011;54864;52.002;5.468;2023-04-03T02:48:16;7.35;;;3.33;;
68074;SDS011;54864;52.002;5.468;2023-04-03T02:49:18;6.10;;;2.95;;
68074;SDS011;54864;52.002;5.468;2023-04-03T02:50:20;6.22;;;3.20;;
68074;SDS011;54864;52.002;5.468;2023-04-03T02:51:21;6.90;;;2.95;;
68074;SDS011;54864;52.002;5.468;2023-04-03T02:52:23;9.38;;;3.10;;
68074;SDS011;54864;52.002;5.468;2023-04-03T02:53:24;7.25;;;3.25;;
68074;SDS011;54864;52.002;5.468;2023-04-03T02:54:26;7.00;;;3.15;;
68074;SDS011;54864;52.002;5.468;2023-04-03T02:55:28;7.67;;;3.30;;
68074;SDS011;54864;52.002;5.468;2023-04-03T02:56:30;5.18;;;2.65;;
68074;SDS011;54864;52.002;5.468;2023-04-03T02:57:30;9.18;;;3.05;;
68074;SDS011;54864;52.002;5.468;2023-04-03T02:58:32;5.05;;;2.88;;
68074;SDS011;54864;52.002;5.468;2023-04-03T02:59:33;5.73;;;2.73;;
68074;SDS011;54864;52.002;5.468;2023-04-03T03:00:34;7.32;;;2.92;;
68074;SDS011;54864;52.002;5.468;2023-04-03T03:01:35;7.72;;;2.90;;
68074;SDS011;54864;52.002;5.468;2023-04-03T03:02:45;6.97;;;2.88;;
68074;SDS011;54864;52.002;5.468;2023-04-03T03:03:55;7.57;;;3.10;;
68074;SDS011;54864;52.002;5.468;2023-04-03T03:05:21;9.23;;;3.60;;
68074;SDS011;54864;52.002;5.468;2023-04-03T03:06:29;6.80;;;3.00;;
68074;SDS011;54864;52.002;5.468;2023-04-03T03:07:43;7.07;;;2.90;;
68074;SDS011;54864;52.002;5.468;2023-04-03T03:08:49;9.60;;;3.20;;
68074;SDS011;54864;52.002;5.468;2023-04-03T03:11:24;7.90;;;3.00;;
68074;SDS011;54864;52.002;5.468;2023-04-03T03:12:33;7.35;;;2.72;;
68074;SDS011;54864;52.002;5.468;2023-04-03T03:13:34;8.10;;;3.17;;
68074;SDS011;54864;52.002;5.468;2023-04-03T03:14:36;6.20;;;2.90;;
68074;SDS011;54864;52.002;5.468;2023-04-03T03:15:37;6.47;;;2.83;;
68074;SDS011;54864;52.002;5.468;2023-04-03T03:16:39;8.70;;;3.08;;
68074;SDS011;54864;52.002;5.468;2023-04-03T03:17:40;6.30;;;3.17;;
68074;SDS011;54864;52.002;5.468;2023-04-03T03:18:42;7.33;;;2.97;;
68074;SDS011;54864;52.002;5.468;2023-04-03T03:19:42;6.50;;;2.83;;
68074;SDS011;54864;52.002;5.468;2023-04-03T03:20:47;5.15;;;2.85;;
68074;SDS011;54864;52.002;5.468;2023-04-03T03:21:51;10.32;;;3.20;;
68074;SDS011;54864;52.002;5.468;2023-04-03T03:22:52;8.77;;;3.45;;
68074;SDS011;54864;52.002;5.468;2023-04-03T03:23:53;6.33;;;3.10;;
68074;SDS011;54864;52.002;5.468;2023-04-03T03:24:55;6.10;;;2.95;;
68074;SDS011;54864;52.002;5.468;2023-04-03T03:25:56;8.60;;;2.92;;
68074;SDS011;54864;52.002;5.468;2023-04-03T03:26:58;7.28;;;3.67;;
68074;SDS011;54864;52.002;5.468;2023-04-03T03:28:00;9.63;;;3.15;;
68074;SDS011;54864;52.002;5.468;2023-04-03T03:29:01;7.60;;;3.13;;
68074;SDS011;54864;52.002;5.468;2023-04-03T03:30:03;6.43;;;3.17;;
68074;SDS011;54864;52.002;5.468;2023-04-03T03:31:04;14.55;;;3.60;;
68074;SDS011;54864;52.002;5.468;2023-04-03T03:32:07;7.45;;;3.10;;
68074;SDS011;54864;52.002;5.468;2023-04-03T03:33:07;9.20;;;3.13;;
68074;SDS011;54864;52.002;5.468;2023-04-03T03:34:09;8.63;;;3.42;;
68074;SDS011;54864;52.002;5.468;2023-04-03T03:35:11;6.05;;;3.53;;
68074;SDS011;54864;52.002;5.468;2023-04-03T03:36:14;6.38;;;3.08;;
68074;SDS011;54864;52.002;5.468;2023-04-03T03:37:16;7.63;;;3.33;;
68074;SDS011;54864;52.002;5.468;2023-04-03T03:38:17;6.18;;;3.35;;
68074;SDS011;54864;52.002;5.468;2023-04-03T03:39:19;8.27;;;3.15;;
68074;SDS011;54864;52.002;5.468;2023-04-03T03:40:19;6.53;;;3.30;;
68074;SDS011;54864;52.002;5.468;2023-04-03T03:41:21;9.13;;;3.60;;
68074;SDS011;54864;52.002;5.468;2023-04-03T03:42:22;5.67;;;3.30;;
68074;SDS011;54864;52.002;5.468;2023-04-03T03:43:24;10.40;;;3.65;;
68074;SDS011;54864;52.002;5.468;2023-04-03T03:44:24;9.25;;;3.10;;
68074;SDS011;54864;52.002;5.468;2023-04-03T03:45:28;9.65;;;4.10;;
68074;SDS011;54864;52.002;5.468;2023-04-03T03:46:29;10.32;;;3.40;;
68074;SDS011;54864;52.002;5.468;2023-04-03T03:47:30;7.05;;;2.95;;
68074;SDS011;54864;52.002;5.468;2023-04-03T03:48:31;8.45;;;3.50;;
68074;SDS011;54864;52.002;5.468;2023-04-03T03:49:33;8.20;;;3.35;;
68074;SDS011;54864;52.002;5.468;2023-04-03T03:50:34;9.05;;;3.28;;
68074;SDS011;54864;52.002;5.468;2023-04-03T03:51:38;4.78;;;3.10;;
68074;SDS011;54864;52.002;5.468;2023-04-03T03:52:39;5.30;;;2.92;;
68074;SDS011;54864;52.002;5.468;2023-04-03T03:53:40;7.18;;;3.33;;
68074;SDS011;54864;52.002;5.468;2023-04-03T03:54:41;5.93;;;3.33;;
68074;SDS011;54864;52.002;5.468;2023-04-03T03:55:43;8.68;;;3.15;;
68074;SDS011;54864;52.002;5.468;2023-04-03T03:56:44;6.93;;;3.05;;
68074;SDS011;54864;52.002;5.468;2023-04-03T03:57:45;8.13;;;3.38;;
68074;SDS011;54864;52.002;5.468;2023-04-03T03:58:46;5.97;;;3.22;;
68074;SDS011;54864;52.002;5.468;2023-04-03T03:59:49;6.22;;;3.38;;
68074;SDS011;54864;52.002;5.468;2023-04-03T04:00:51;7.65;;;3.25;;
68074;SDS011;54864;52.002;5.468;2023-04-03T04:01:53;9.77;;;3.70;;
68074;SDS011;54864;52.002;5.468;2023-04-03T04:02:54;5.35;;;2.92;;
68074;SDS011;54864;52.002;5.468;2023-04-03T04:03:57;7.43;;;3.38;;
68074;SDS011;54864;52.002;5.468;2023-04-03T04:04:58;5.20;;;2.80;;
68074;SDS011;54864;52.002;5.468;2023-04-03T04:05:59;11.20;;;3.60;;
68074;SDS011;54864;52.002;5.468;2023-04-03T04:07:02;8.57;;;3.28;;
68074;SDS011;54864;52.002;5.468;2023-04-03T04:08:04;6.72;;;3.50;;
68074;SDS011;54864;52.002;5.468;2023-04-03T04:09:05;8.50;;;3.20;;
68074;SDS011;54864;52.002;5.468;2023-04-03T04:10:07;6.32;;;3.50;;
68074;SDS011;54864;52.002;5.468;2023-04-03T04:11:09;8.93;;;2.90;;
68074;SDS011;54864;52.002;5.468;2023-04-03T04:12:10;10.70;;;3.42;;
68074;SDS011;54864;52.002;5.468;2023-04-03T04:13:12;10.52;;;3.28;;
68074;SDS011;54864;52.002;5.468;2023-04-03T04:14:12;6.75;;;3.05;;
68074;SDS011;54864;52.002;5.468;2023-04-03T04:15:14;8.45;;;3.55;;
68074;SDS011;54864;52.002;5.468;2023-04-03T04:16:15;8.23;;;3.10;;
68074;SDS011;54864;52.002;5.468;2023-04-03T04:17:16;7.45;;;3.15;;
68074;SDS011;54864;52.002;5.468;2023-04-03T04:18:20;8.50;;;3.47;;
68074;SDS011;54864;52.002;5.468;2023-04-03T04:19:22;8.20;;;3.13;;
68074;SDS011;54864;52.002;5.468;2023-04-03T04:20:26;11.77;;;3.33;;
68074;SDS011;54864;52.002;5.468;2023-04-03T04:21:27;6.75;;;3.40;;
68074;SDS011;54864;52.002;5.468;2023-04-03T04:22:29;6.03;;;3.03;;
68074;SDS011;54864;52.002;5.468;2023-04-03T04:23:31;7.95;;;3.83;;
68074;SDS011;54864;52.002;5.468;2023-04-03T04:24:32;10.85;;;3.72;;
68074;SDS011;54864;52.002;5.468;2023-04-03T04:25:34;7.07;;;3.67;;
68074;SDS011;54864;52.002;5.468;2023-04-03T04:26:35;6.38;;;3.42;;
68074;SDS011;54864;52.002;5.468;2023-04-03T04:27:37;10.02;;;3.35;;
68074;SDS011;54864;52.002;5.468;2023-04-03T04:28:38;11.95;;;4.15;;
68074;SDS011;54864;52.002;5.468;2023-04-03T04:29:39;6.38;;;3.28;;
68074;SDS011;54864;52.002;5.468;2023-04-03T04:30:40;6.18;;;3.10;;
68074;SDS011;54864;52.002;5.468;2023-04-03T04:31:42;9.90;;;3.67;;
68074;SDS011;54864;52.002;5.468;2023-04-03T04:32:42;8.67;;;3.20;;
68074;SDS011;54864;52.002;5.468;2023-04-03T04:33:44;9.98;;;3.50;;
68074;SDS011;54864;52.002;5.468;2023-04-03T04:34:45;7.78;;;3.35;;
68074;SDS011;54864;52.002;5.468;2023-04-03T04:35:47;15.23;;;3.42;;
68074;SDS011;54864;52.002;5.468;2023-04-03T04:36:48;7.47;;;2.95;;
68074;SDS011;54864;52.002;5.468;2023-04-03T04:37:52;7.13;;;3.20;;
68074;SDS011;54864;52.002;5.468;2023-04-03T04:38:52;6.03;;;3.38;;
68074;SDS011;54864;52.002;5.468;2023-04-03T04:39:54;8.48;;;3.83;;
68074;SDS011;54864;52.002;5.468;2023-04-03T04:40:55;6.95;;;3.33;;
68074;SDS011;54864;52.002;5.468;2023-04-03T04:41:57;7.32;;;3.03;;
68074;SDS011;54864;52.002;5.468;2023-04-03T04:42:58;8.27;;;3.60;;
68074;SDS011;54864;52.002;5.468;2023-04-03T04:44:00;11.57;;;3.27;;
68074;SDS011;54864;52.002;5.468;2023-04-03T04:45:01;7.77;;;3.53;;
68074;SDS011;54864;52.002;5.468;2023-04-03T04:46:03;8.05;;;3.83;;
68074;SDS011;54864;52.002;5.468;2023-04-03T04:47:05;8.63;;;3.03;;
68074;SDS011;54864;52.002;5.468;2023-04-03T04:48:07;10.07;;;3.10;;
68074;SDS011;54864;52.002;5.468;2023-04-03T04:49:09;8.50;;;3.47;;
68074;SDS011;54864;52.002;5.468;2023-04-03T04:50:10;7.55;;;3.70;;
68074;SDS011;54864;52.002;5.468;2023-04-03T04:51:12;8.90;;;3.30;;
68074;SDS011;54864;52.002;5.468;2023-04-03T04:52:13;14.67;;;3.53;;
68074;SDS011;54864;52.002;5.468;2023-04-03T04:53:16;6.88;;;3.28;;
68074;SDS011;54864;52.002;5.468;2023-04-03T04:54:17;9.18;;;3.50;;
68074;SDS011;54864;52.002;5.468;2023-04-03T04:55:19;12.27;;;3.72;;
68074;SDS011;54864;52.002;5.468;2023-04-03T04:56:21;9.95;;;3.55;;
68074;SDS011;54864;52.002;5.468;2023-04-03T04:57:21;10.52;;;3.75;;
68074;SDS011;54864;52.002;5.468;2023-04-03T04:58:26;8.95;;;3.55;;
68074;SDS011;54864;52.002;5.468;2023-04-03T04:59:26;11.07;;;3.57;;
68074;SDS011;54864;52.002;5.468;2023-04-03T05:00:28;9.88;;;3.40;;
68074;SDS011;54864;52.002;5.468;2023-04-03T05:01:30;10.52;;;3.53;;
68074;SDS011;54864;52.002;5.468;2023-04-03T05:02:31;10.23;;;3.53;;
68074;SDS011;54864;52.002;5.468;2023-04-03T05:03:33;7.60;;;3.35;;
68074;SDS011;54864;52.002;5.468;2023-04-03T05:04:33;9.52;;;3.40;;
68074;SDS011;54864;52.002;5.468;2023-04-03T05:05:35;8.70;;;3.20;;
68074;SDS011;54864;52.002;5.468;2023-04-03T05:06:36;11.43;;;3.53;;
68074;SDS011;54864;52.002;5.468;2023-04-03T05:07:38;7.82;;;3.60;;
68074;SDS011;54864;52.002;5.468;2023-04-03T05:08:41;9.60;;;3.38;;
68074;SDS011;54864;52.002;5.468;2023-04-03T05:09:42;7.00;;;3.58;;
68074;SDS011;54864;52.002;5.468;2023-04-03T05:10:44;9.93;;;3.53;;
68074;SDS011;54864;52.002;5.468;2023-04-03T05:11:46;9.05;;;3.60;;
68074;SDS011;54864;52.002;5.468;2023-04-03T05:12:48;10.40;;;3.87;;
68074;SDS011;54864;52.002;5.468;2023-04-03T05:13:48;6.93;;;3.13;;
68074;SDS011;54864;52.002;5.468;2023-04-03T05:14:50;8.85;;;3.13;;
68074;SDS011;54864;52.002;5.468;2023-04-03T05:15:50;6.18;;;3.10;;
68074;SDS011;54864;52.002;5.468;2023-04-03T05:16:53;9.00;;;3.60;;
68074;SDS011;54864;52.002;5.468;2023-04-03T05:17:54;7.38;;;3.92;;
68074;SDS011;54864;52.002;5.468;2023-04-03T05:18:55;11.73;;;3.75;;
68074;SDS011;54864;52.002;5.468;2023-04-03T05:19:56;8.80;;;3.33;;
68074;SDS011;54864;52.002;5.468;2023-04-03T05:20:58;10.80;;;3.70;;
68074;SDS011;54864;52.002;5.468;2023-04-03T05:21:59;12.00;;;4.07;;
68074;SDS011;54864;52.002;5.468;2023-04-03T05:23:00;6.18;;;3.78;;
68074;SDS011;54864;52.002;5.468;2023-04-03T05:24:04;7.78;;;3.70;;
68074;SDS011;54864;52.002;5.468;2023-04-03T05:25:05;8.55;;;4.18;;
68074;SDS011;54864;52.002;5.468;2023-04-03T05:26:07;8.37;;;3.40;;
68074;SDS011;54864;52.002;5.468;2023-04-03T05:27:08;10.53;;;3.60;;
68074;SDS011;54864;52.002;5.468;2023-04-03T05:28:11;10.63;;;3.78;;
68074;SDS011;54864;52.002;5.468;2023-04-03T05:29:11;11.02;;;3.95;;
68074;SDS011;54864;52.002;5.468;2023-04-03T05:30:13;9.30;;;3.75;;
68074;SDS011;54864;52.002;5.468;2023-04-03T05:31:14;7.10;;;3.50;;
68074;SDS011;54864;52.002;5.468;2023-04-03T05:32:16;10.13;;;3.60;;
68074;SDS011;54864;52.002;5.468;2023-04-03T05:33:17;8.53;;;3.43;;
68074;SDS011;54864;52.002;5.468;2023-04-03T05:34:19;13.20;;;3.72;;
68074;SDS011;54864;52.002;5.468;2023-04-03T05:35:19;9.00;;;3.47;;
68074;SDS011;54864;52.002;5.468;2023-04-03T05:36:21;10.07;;;4.05;;
68074;SDS011;54864;52.002;5.468;2023-04-03T05:37:26;13.25;;;3.55;;
68074;SDS011;54864;52.002;5.468;2023-04-03T05:38:27;8.75;;;3.28;;
68074;SDS011;54864;52.002;5.468;2023-04-03T05:39:31;9.30;;;3.60;;
68074;SDS011;54864;52.002;5.468;2023-04-03T05:40:33;12.50;;;3.90;;
68074;SDS011;54864;52.002;5.468;2023-04-03T05:41:33;7.03;;;3.33;;
68074;SDS011;54864;52.002;5.468;2023-04-03T05:42:35;8.23;;;3.40;;
68074;SDS011;54864;52.002;5.468;2023-04-03T05:43:36;10.70;;;3.55;;
68074;SDS011;54864;52.002;5.468;2023-04-03T05:44:39;7.30;;;3.55;;
68074;SDS011;54864;52.002;5.468;2023-04-03T05:45:41;11.23;;;4.00;;
68074;SDS011;54864;52.002;5.468;2023-04-03T05:46:42;9.05;;;4.13;;
68074;SDS011;54864;52.002;5.468;2023-04-03T05:47:44;11.97;;;3.57;;
68074;SDS011;54864;52.002;5.468;2023-04-03T05:48:45;9.07;;;3.70;;
68074;SDS011;54864;52.002;5.468;2023-04-03T05:49:46;12.45;;;3.40;;
68074;SDS011;54864;52.002;5.468;2023-04-03T05:50:47;9.48;;;4.20;;
68074;SDS011;54864;52.002;5.468;2023-04-03T05:51:49;8.90;;;3.60;;
68074;SDS011;54864;52.002;5.468;2023-04-03T05:52:52;7.25;;;3.20;;
68074;SDS011;54864;52.002;5.468;2023-04-03T05:53:56;9.68;;;3.63;;
68074;SDS011;54864;52.002;5.468;2023-04-03T05:55:06;11.80;;;3.70;;
68074;SDS011;54864;52.002;5.468;2023-04-03T05:56:07;6.00;;;3.40;;
68074;SDS011;54864;52.002;5.468;2023-04-03T05:57:09;8.48;;;3.17;;
68074;SDS011;54864;52.002;5.468;2023-04-03T05:58:12;8.77;;;3.55;;
68074;SDS011;54864;52.002;5.468;2023-04-03T05:59:12;9.43;;;3.60;;
68074;SDS011;54864;52.002;5.468;2023-04-03T06:00:14;7.30;;;3.40;;
68074;SDS011;54864;52.002;5.468;2023-04-03T06:01:16;8.85;;;3.50;;
68074;SDS011;54864;52.002;5.468;2023-04-03T06:02:18;8.95;;;3.40;;
68074;SDS011;54864;52.002;5.468;2023-04-03T06:03:21;6.10;;;3.20;;
68074;SDS011;54864;52.002;5.468;2023-04-03T06:04:26;10.82;;;3.60;;
68074;SDS011;54864;52.002;5.468;2023-04-03T06:05:27;9.95;;;3.67;;
68074;SDS011;54864;52.002;5.468;2023-04-03T06:06:42;7.05;;;3.42;;
68074;SDS011;54864;52.002;5.468;2023-04-03T06:07:45;7.65;;;3.20;;
68074;SDS011;54864;52.002;5.468;2023-04-03T06:08:46;9.23;;;3.63;;
68074;SDS011;54864;52.002;5.468;2023-04-03T06:09:48;9.10;;;3.30;;
68074;SDS011;54864;52.002;5.468;2023-04-03T06:10:52;6.93;;;3.15;;
68074;SDS011;54864;52.002;5.468;2023-04-03T06:11:54;11.73;;;3.55;;
68074;SDS011;54864;52.002;5.468;2023-04-03T06:12:58;8.30;;;3.50;;
68074;SDS011;54864;52.002;5.468;2023-04-03T06:14:00;8.60;;;3.70;;
68074;SDS011;54864;52.002;5.468;2023-04-03T06:15:00;10.30;;;3.70;;
68074;SDS011;54864;52.002;5.468;2023-04-03T06:16:04;10.73;;;3.58;;
68074;SDS011;54864;52.002;5.468;2023-04-03T06:17:06;8.98;;;3.45;;
68074;SDS011;54864;52.002;5.468;2023-04-03T06:18:08;10.48;;;3.40;;